createdAt,value
2023-03-22T00:00:35.805Z,2.00
2023-03-22T00:03:07.632Z,2.47
2023-03-22T00:05:40.181Z,3.00
2023-03-22T00:08:14.402Z,2.58
2023-03-22T00:10:45.917Z,2.72
2023-03-22T00:13:17.121Z,2.17
2023-03-22T00:15:49.468Z,2.45
2023-03-22T00:18:21.102Z,2.75
2023-03-22T00:20:53.050Z,2.75
2023-03-22T00:23:27.462Z,1.98
2023-03-22T00:25:58.747Z,1.85
2023-03-22T00:28:30.061Z,2.67
2023-03-22T00:31:02.484Z,2.00
2023-03-22T00:33:34.280Z,2.75
2023-03-22T00:36:07.424Z,2.50
2023-03-22T00:38:43.117Z,2.65
2023-03-22T00:41:17.794Z,2.38
2023-03-22T00:43:49.506Z,2.15
2023-03-22T00:46:23.093Z,2.22
2023-03-22T00:48:55.130Z,2.42
2023-03-22T00:51:26.228Z,1.85
2023-03-22T00:53:59.948Z,2.67
2023-03-22T00:56:34.156Z,2.22
2023-03-22T00:59:13.880Z,1.77
2023-03-22T01:01:47.470Z,1.60
2023-03-22T01:04:26.413Z,1.88
2023-03-22T01:07:01.607Z,1.73
2023-03-22T01:09:36.220Z,2.85
2023-03-22T01:12:07.339Z,1.80
2023-03-22T01:14:38.285Z,1.83
2023-03-22T01:17:09.774Z,1.45
2023-03-22T01:19:41.614Z,2.10
2023-03-22T01:22:12.817Z,1.70
2023-03-22T01:24:46.759Z,2.83
2023-03-22T01:27:17.607Z,1.73
2023-03-22T01:29:49.349Z,1.80
2023-03-22T01:32:20.070Z,1.90
2023-03-22T01:34:51.560Z,2.00
2023-03-22T01:37:28.076Z,1.60
2023-03-22T01:40:03.203Z,1.58
2023-03-22T01:42:35.257Z,1.40
2023-03-22T01:45:41.819Z,1.65
2023-03-22T01:48:22.315Z,1.80
2023-03-22T01:51:09.145Z,1.70
2023-03-22T01:53:59.845Z,1.95
2023-03-22T01:56:37.575Z,1.90
2023-03-22T01:59:15.897Z,1.30
2023-03-22T02:02:20.068Z,1.60
2023-03-22T02:05:06.700Z,1.80
2023-03-22T02:07:38.362Z,2.15
2023-03-22T02:10:14.708Z,2.63
2023-03-22T02:13:09.167Z,1.58
2023-03-22T02:16:14.959Z,1.80
2023-03-22T02:19:05.544Z,1.40
2023-03-22T02:22:01.168Z,2.47
2023-03-22T02:24:56.538Z,1.35
2023-03-22T02:27:44.087Z,2.17
2023-03-22T02:30:41.515Z,1.80
2023-03-22T02:33:44.650Z,2.97
2023-03-22T02:36:50.049Z,1.88
2023-03-22T02:39:35.205Z,1.35
2023-03-22T02:42:19.189Z,2.13
2023-03-22T02:45:00.681Z,1.98
2023-03-22T02:47:40.495Z,2.78
2023-03-22T02:50:17.349Z,1.73
2023-03-22T02:52:54.388Z,2.55
2023-03-22T02:55:32.445Z,1.70
2023-03-22T02:58:09.926Z,2.58
2023-03-22T03:00:42.882Z,1.75
2023-03-22T03:03:18.617Z,1.63
2023-03-22T03:05:54.287Z,2.40
2023-03-22T03:08:27.015Z,2.22
2023-03-22T03:11:01.856Z,1.73
2023-03-22T03:13:34.373Z,1.88
2023-03-22T03:16:09.100Z,2.25
2023-03-22T03:18:48.748Z,1.98
2023-03-22T03:21:33.070Z,1.85
2023-03-22T03:24:21.546Z,3.20
2023-03-22T03:27:02.021Z,1.90
2023-03-22T03:29:41.166Z,1.30
2023-03-22T03:32:18.568Z,1.38
2023-03-22T03:34:55.933Z,1.77
2023-03-22T03:37:31.211Z,1.90
2023-03-22T03:40:10.276Z,1.90
2023-03-22T03:42:48.876Z,2.70
2023-03-22T03:45:22.401Z,1.92
2023-03-22T03:47:58.572Z,1.60
2023-03-22T03:50:31.272Z,1.40
2023-03-22T03:53:02.826Z,1.38
2023-03-22T03:55:35.607Z,2.85
2023-03-22T03:58:09.887Z,2.03
2023-03-22T04:00:41.678Z,1.90
2023-03-22T04:03:33.328Z,2.17
2023-03-22T04:06:09.105Z,1.95
2023-03-22T04:08:45.831Z,1.80
2023-03-22T04:11:20.131Z,2.00
2023-03-22T04:13:57.404Z,1.90
2023-03-22T04:16:28.627Z,2.08
2023-03-22T04:19:00.034Z,1.98
2023-03-22T04:21:31.384Z,1.60
2023-03-22T04:24:05.175Z,1.83
2023-03-22T04:26:41.060Z,1.90
2023-03-22T04:29:32.429Z,2.13
2023-03-22T04:32:19.776Z,1.88
2023-03-22T04:34:50.671Z,1.30
2023-03-22T04:37:24.953Z,2.28
2023-03-22T04:40:00.497Z,1.85
2023-03-22T04:42:51.766Z,2.58
2023-03-22T04:45:36.184Z,1.67
2023-03-22T04:48:10.798Z,2.28
2023-03-22T04:50:43.370Z,2.00
2023-03-22T04:53:14.463Z,1.50
2023-03-22T04:55:48.705Z,2.47
2023-03-22T04:58:22.332Z,2.13
2023-03-22T05:00:57.235Z,2.38
2023-03-22T05:03:28.338Z,1.80
2023-03-22T05:06:01.759Z,2.17
2023-03-22T05:08:42.440Z,1.55
2023-03-22T05:11:17.517Z,2.00
2023-03-22T05:13:58.078Z,2.63
2023-03-22T05:16:33.234Z,2.30
2023-03-22T05:19:04.668Z,2.08
2023-03-22T05:21:37.089Z,3.03
2023-03-22T05:24:10.418Z,1.77
2023-03-22T05:26:43.110Z,3.10
2023-03-22T05:29:15.828Z,2.47
2023-03-22T05:32:05.886Z,1.83
2023-03-22T05:34:38.530Z,2.45
2023-03-22T05:37:22.261Z,1.90
2023-03-22T05:39:57.024Z,1.98
2023-03-22T05:42:37.403Z,2.08
2023-03-22T05:45:18.297Z,2.13
2023-03-22T05:47:56.609Z,2.20
2023-03-22T05:50:28.510Z,1.65
2023-03-22T05:53:07.166Z,2.10
2023-03-22T05:55:50.184Z,1.77
2023-03-22T05:58:21.441Z,3.03
2023-03-22T06:00:57.746Z,1.90
2023-03-22T06:03:40.974Z,2.42
2023-03-22T06:06:28.378Z,2.45
2023-03-22T06:09:16.760Z,2.22
2023-03-22T06:11:50.750Z,2.13
2023-03-22T06:14:21.814Z,2.35
2023-03-22T06:17:28.230Z,1.75
2023-03-22T06:20:02.032Z,1.77
2023-03-22T06:22:33.873Z,1.88
2023-03-22T06:25:06.129Z,2.55
2023-03-22T06:27:42.876Z,2.65
2023-03-22T06:30:14.544Z,1.70
2023-03-22T06:33:07.690Z,2.08
2023-03-22T06:35:45.060Z,2.10
2023-03-22T06:38:20.952Z,1.38
2023-03-22T06:40:51.957Z,1.83
2023-03-22T06:43:23.086Z,1.67
2023-03-22T06:45:58.974Z,1.42
2023-03-22T06:48:36.339Z,2.42
2023-03-22T06:51:14.239Z,2.15
2023-03-22T06:53:46.926Z,1.77
2023-03-22T06:56:20.978Z,1.80
2023-03-22T06:58:58.243Z,1.50
2023-03-22T07:01:33.807Z,2.35
2023-03-22T07:06:47.118Z,1.50
2023-03-22T07:09:21.050Z,1.35
2023-03-22T07:11:58.504Z,2.10
2023-03-22T07:14:32.458Z,1.60
2023-03-22T07:17:19.120Z,1.70
2023-03-22T07:22:32.481Z,1.43
2023-03-22T07:25:06.502Z,1.50
2023-03-22T07:27:38.959Z,1.40
2023-03-22T07:30:12.247Z,2.10
2023-03-22T07:32:48.625Z,1.88
2023-03-22T07:35:20.217Z,2.15
2023-03-22T07:37:56.762Z,1.80
2023-03-22T07:40:38.910Z,1.58
2023-03-22T07:43:16.449Z,1.83
2023-03-22T07:45:59.449Z,2.53
2023-03-22T07:48:50.043Z,1.52
2023-03-22T07:51:39.990Z,1.52
2023-03-22T07:54:30.505Z,1.30
2023-03-22T07:57:10.412Z,1.15
2023-03-22T07:59:55.436Z,1.23
2023-03-22T08:02:35.086Z,1.10
2023-03-22T08:05:12.936Z,0.95
2023-03-22T08:07:53.291Z,1.20
2023-03-22T08:10:34.934Z,1.58
2023-03-22T08:13:12.038Z,1.15
2023-03-22T08:15:49.586Z,1.30
2023-03-22T08:18:27.964Z,1.75
2023-03-22T08:21:06.484Z,2.00
2023-03-22T08:23:45.035Z,1.73
2023-03-22T08:26:28.958Z,1.63
2023-03-22T08:29:12.014Z,2.80
2023-03-22T08:31:50.577Z,1.42
2023-03-22T08:34:28.124Z,1.88
2023-03-22T08:37:05.487Z,2.10
2023-03-22T08:39:44.089Z,2.75
2023-03-22T08:42:48.849Z,1.73
2023-03-22T08:45:26.910Z,1.90
2023-03-22T08:48:11.778Z,1.60
2023-03-22T08:51:07.660Z,1.92
2023-03-22T08:54:00.459Z,2.25
2023-03-22T09:00:08.567Z,1.70
2023-03-22T09:02:53.897Z,2.13
2023-03-22T09:05:32.194Z,1.80
2023-03-22T09:08:08.737Z,1.98
2023-03-22T09:10:53.508Z,2.15
2023-03-22T09:13:32.948Z,2.03
2023-03-22T09:16:17.324Z,1.90
2023-03-22T09:18:57.033Z,2.42
2023-03-22T09:21:36.560Z,2.20
2023-03-22T09:24:24.539Z,2.03
2023-03-22T09:27:06.579Z,2.05
2023-03-22T09:29:44.395Z,2.00
2023-03-22T09:32:29.488Z,3.00
2023-03-22T09:35:09.777Z,3.45
2023-03-22T09:40:33.376Z,2.22
2023-03-22T09:43:08.740Z,2.60
2023-03-22T09:45:45.303Z,2.97
2023-03-22T09:48:21.773Z,2.65
2023-03-22T09:50:55.454Z,2.60
2023-03-22T09:53:28.260Z,1.77
2023-03-22T09:56:04.599Z,2.33
2023-03-22T09:58:42.873Z,2.15
2023-03-22T10:01:24.828Z,1.90
2023-03-22T10:04:22.722Z,2.25
2023-03-22T10:07:08.000Z,2.53
2023-03-22T10:09:54.464Z,1.67
2023-03-22T10:12:29.406Z,1.40
2023-03-22T10:15:07.225Z,1.27
2023-03-22T10:17:39.495Z,1.73
2023-03-22T10:20:24.759Z,1.40
2023-03-22T10:22:57.835Z,1.38
2023-03-22T10:25:36.659Z,1.55
2023-03-22T10:28:17.681Z,1.83
2023-03-22T10:30:51.713Z,1.65
2023-03-22T10:33:31.435Z,1.13
2023-03-22T10:36:14.751Z,1.50
2023-03-22T10:38:55.072Z,1.45
2023-03-22T10:41:35.877Z,1.25
2023-03-22T10:44:14.378Z,2.03
2023-03-22T10:46:52.743Z,2.03
2023-03-22T10:49:33.291Z,1.92
2023-03-22T10:52:26.751Z,1.70
2023-03-22T10:55:04.849Z,1.70
2023-03-22T10:57:41.619Z,1.75
2023-03-22T11:00:45.079Z,1.77
2023-03-22T11:03:35.824Z,3.03
2023-03-22T11:06:17.674Z,1.58
2023-03-22T11:08:59.043Z,1.70
2023-03-22T11:11:38.335Z,2.10
2023-03-22T11:14:15.956Z,2.13
2023-03-22T11:16:50.644Z,1.95
2023-03-22T11:19:26.734Z,1.92
2023-03-22T11:21:58.339Z,1.90
2023-03-22T11:24:34.466Z,2.50
2023-03-22T11:27:06.934Z,1.20
2023-03-22T11:29:44.971Z,1.50
2023-03-22T11:32:29.850Z,1.30
2023-03-22T11:35:04.266Z,2.13
2023-03-22T11:37:34.618Z,1.80
2023-03-22T11:40:11.026Z,1.98
2023-03-22T11:42:41.356Z,1.70
2023-03-22T11:45:17.816Z,2.60
2023-03-22T11:47:49.185Z,1.73
2023-03-22T11:50:29.592Z,3.00
2023-03-22T11:53:00.228Z,5.50
2023-03-22T11:55:34.470Z,3.80
2023-03-22T11:58:06.609Z,2.83
2023-03-22T12:00:40.185Z,1.88
2023-03-22T12:03:18.179Z,2.00
2023-03-22T12:05:51.793Z,1.77
2023-03-22T12:08:28.416Z,2.40
2023-03-22T12:11:08.192Z,1.70
2023-03-22T12:13:49.743Z,1.92
2023-03-22T12:16:26.225Z,2.38
2023-03-22T12:19:08.155Z,2.00
2023-03-22T12:21:38.592Z,1.95
2023-03-22T12:24:19.055Z,2.90
2023-03-22T12:26:54.613Z,2.40
2023-03-22T12:29:25.622Z,3.05
2023-03-22T12:32:03.576Z,2.13
2023-03-22T12:34:42.101Z,3.00
2023-03-22T12:37:18.486Z,2.88
2023-03-22T12:39:53.822Z,2.13
2023-03-22T12:42:34.944Z,2.47
2023-03-22T12:45:15.696Z,2.83
2023-03-22T12:47:49.633Z,1.83
2023-03-22T12:50:23.723Z,2.25
2023-03-22T12:52:57.064Z,2.38
2023-03-22T12:55:31.712Z,2.42
2023-03-22T12:58:05.252Z,1.77
2023-03-22T13:00:40.108Z,2.00
2023-03-22T13:03:23.166Z,1.75
2023-03-22T13:06:04.283Z,1.38
2023-03-22T13:09:04.803Z,1.80
2023-03-22T13:11:35.835Z,1.50
2023-03-22T13:14:09.273Z,1.50
2023-03-22T13:16:53.486Z,1.50
2023-03-22T13:19:41.565Z,1.60
2023-03-22T13:22:21.191Z,3.05
2023-03-22T13:25:10.505Z,1.60
2023-03-22T13:27:44.996Z,1.67
2023-03-22T13:30:27.137Z,1.92
2023-03-22T13:33:03.671Z,2.45
2023-03-22T13:35:46.073Z,1.45
2023-03-22T13:38:23.943Z,1.40
2023-03-22T13:41:11.804Z,1.63
2023-03-22T13:43:53.386Z,1.60
2023-03-22T13:46:49.583Z,1.83
2023-03-22T13:49:51.640Z,1.50
2023-03-22T13:52:33.002Z,2.47
2023-03-22T13:55:03.423Z,2.08
2023-03-22T13:57:50.566Z,1.60
2023-03-22T14:00:36.472Z,1.65
2023-03-22T14:03:16.244Z,1.63
2023-03-22T14:05:49.252Z,1.80
2023-03-22T14:08:28.472Z,1.52
2023-03-22T14:11:05.668Z,1.65
2023-03-22T14:13:41.023Z,1.05
2023-03-22T14:16:18.500Z,1.33
2023-03-22T14:18:52.610Z,1.30
2023-03-22T14:21:28.942Z,2.08
2023-03-22T14:52:20.053Z,1.65
2023-03-22T14:54:54.809Z,1.10
2023-03-22T14:57:28.462Z,1.02
2023-03-22T15:00:16.483Z,0.90
2023-03-22T15:02:50.040Z,2.10
2023-03-22T15:05:25.512Z,0.95
2023-03-22T15:07:58.046Z,1.20
2023-03-22T15:10:31.458Z,1.20
2023-03-22T15:13:02.265Z,1.20
2023-03-22T15:15:35.990Z,1.10
2023-03-22T15:18:07.648Z,1.65
2023-03-22T15:20:42.704Z,0.80
2023-03-22T15:23:18.556Z,0.80
2023-03-22T15:25:50.415Z,1.13
2023-03-22T15:28:22.938Z,0.95
2023-03-22T15:30:55.543Z,0.85
2023-03-22T15:33:28.451Z,0.90
2023-03-22T15:36:02.915Z,1.08
2023-03-22T15:38:46.740Z,1.55
2023-03-22T15:41:28.218Z,1.77
2023-03-22T15:44:08.449Z,1.20
2023-03-22T15:46:52.922Z,0.80
2023-03-22T15:49:27.933Z,0.93
2023-03-22T15:52:12.421Z,0.90
2023-03-22T15:54:46.680Z,1.08
2023-03-22T15:57:25.389Z,0.90
2023-03-22T15:59:58.063Z,1.02
2023-03-22T16:02:31.875Z,1.00
2023-03-22T16:05:03.172Z,0.70
2023-03-22T16:07:36.540Z,0.90
2023-03-22T16:10:07.723Z,0.70
2023-03-22T16:12:38.150Z,0.70
2023-03-22T16:15:10.258Z,0.90
2023-03-22T16:17:40.891Z,1.00
2023-03-22T16:20:12.968Z,1.35
2023-03-22T16:22:48.013Z,1.88
2023-03-22T16:25:22.072Z,1.35
2023-03-22T16:27:52.644Z,1.77
2023-03-22T16:30:23.336Z,1.20
2023-03-22T16:32:53.793Z,1.15
2023-03-22T16:35:26.582Z,0.73
2023-03-22T16:37:59.536Z,1.05
2023-03-22T16:40:32.057Z,0.80
2023-03-22T16:43:04.131Z,0.70
2023-03-22T16:45:36.605Z,1.02
2023-03-22T16:48:07.823Z,1.40
2023-03-22T16:50:42.037Z,1.10
2023-03-22T16:53:18.205Z,1.48
2023-03-22T16:55:49.080Z,1.57
2023-03-22T16:58:19.625Z,1.50
2023-03-22T17:00:50.281Z,1.55
2023-03-22T17:03:25.446Z,1.98
2023-03-22T17:05:56.075Z,2.95
2023-03-22T17:08:29.121Z,1.20
2023-03-22T17:10:59.570Z,1.63
2023-03-22T17:13:30.014Z,1.15
2023-03-22T17:16:00.498Z,1.20
2023-03-22T17:18:31.166Z,1.80
2023-03-22T17:21:01.742Z,1.73
2023-03-22T17:23:34.749Z,1.33
2023-03-22T17:26:05.283Z,1.50
2023-03-22T17:28:35.930Z,1.50
2023-03-22T17:31:07.266Z,1.70
2023-03-22T17:33:38.480Z,1.40
2023-03-22T17:36:09.952Z,1.60
2023-03-22T17:38:49.732Z,1.40
2023-03-22T17:41:33.985Z,1.50
2023-03-22T17:44:04.524Z,1.80
2023-03-22T17:47:13.323Z,1.65
2023-03-22T17:49:25.651Z,1.35
2023-03-22T17:51:56.461Z,1.40
2023-03-22T17:55:06.287Z,1.80
2023-03-22T17:59:54.073Z,1.40
2023-03-22T18:02:27.564Z,2.70
2023-03-22T18:04:59.024Z,1.67
2023-03-22T18:07:29.412Z,1.98
2023-03-22T18:10:07.577Z,2.20
2023-03-22T18:12:38.424Z,1.70
2023-03-22T18:15:12.747Z,1.80
2023-03-22T18:17:43.986Z,2.05
2023-03-22T18:20:34.071Z,2.08
2023-03-22T18:23:07.301Z,2.22
2023-03-22T18:25:42.157Z,1.77
2023-03-22T18:28:13.780Z,2.70
2023-03-22T18:30:44.153Z,2.50
2023-03-22T18:33:14.605Z,2.97
2023-03-22T18:35:45.048Z,2.28
2023-03-22T18:38:31.078Z,3.22
2023-03-22T18:43:50.970Z,2.20
2023-03-22T18:46:23.371Z,2.83
2023-03-22T18:48:53.891Z,2.50
2023-03-22T18:51:24.643Z,2.55
2023-03-22T18:53:55.842Z,2.15
2023-03-22T18:56:32.200Z,2.40
2023-03-22T18:59:03.034Z,2.28
2023-03-22T19:01:33.614Z,1.90
2023-03-22T19:04:03.960Z,2.60
2023-03-22T19:06:34.847Z,1.88
2023-03-22T19:09:05.251Z,2.28
2023-03-22T19:11:38.312Z,2.58
2023-03-22T19:14:59.551Z,2.45
2023-03-22T19:17:00.213Z,3.13
2023-03-22T19:19:33.421Z,3.35
2023-03-22T19:22:04.030Z,2.47
2023-03-22T19:24:36.690Z,2.88
2023-03-22T19:27:18.300Z,2.42
2023-03-22T19:29:50.912Z,3.40
2023-03-22T19:32:21.385Z,2.90
2023-03-22T19:34:56.431Z,2.65
2023-03-22T19:37:27.749Z,3.50
2023-03-22T19:45:10.324Z,2.53
2023-03-22T19:47:58.047Z,2.85
2023-03-22T19:50:37.678Z,2.50
2023-03-22T19:53:36.135Z,2.75
2023-03-22T19:55:59.454Z,3.63
2023-03-22T19:58:33.608Z,2.92
2023-03-22T20:01:12.932Z,2.78
2023-03-22T20:03:50.001Z,3.03
2023-03-22T20:08:53.945Z,2.55
2023-03-22T20:11:34.949Z,3.05
2023-03-22T20:14:15.054Z,2.80
2023-03-22T20:16:49.729Z,3.20
2023-03-22T20:19:24.200Z,2.78
2023-03-22T20:21:54.726Z,2.53
2023-03-22T20:24:25.171Z,3.00
2023-03-22T20:26:55.925Z,2.35
2023-03-22T20:29:29.054Z,2.50
2023-03-22T20:31:59.479Z,2.53
2023-03-22T20:34:30.486Z,3.40
2023-03-22T20:37:02.004Z,3.05
2023-03-22T20:39:32.545Z,2.20
2023-03-22T20:42:03.403Z,2.28
2023-03-22T20:44:36.959Z,2.50
2023-03-22T20:47:07.581Z,2.33
2023-03-22T20:49:38.152Z,3.08
2023-03-22T20:52:08.950Z,2.33
2023-03-22T20:54:40.322Z,2.60
2023-03-22T20:57:10.923Z,3.15
2023-03-22T20:59:44.846Z,3.22
2023-03-22T21:02:18.247Z,2.83
2023-03-22T21:04:48.758Z,3.53
2023-03-22T21:07:19.298Z,3.88
2023-03-22T21:09:49.718Z,2.83
2023-03-22T21:12:20.085Z,3.20
2023-03-22T21:14:53.163Z,5.30
2023-03-22T21:17:23.597Z,4.03
2023-03-22T21:19:54.085Z,4.47
2023-03-22T21:22:24.674Z,4.05
2023-03-22T21:24:55.414Z,3.40
2023-03-22T21:27:26.315Z,3.67
2023-03-22T21:29:59.816Z,4.13
2023-03-22T21:32:30.941Z,3.25
2023-03-22T21:35:02.058Z,3.03
2023-03-22T21:37:32.521Z,3.50
2023-03-22T21:40:07.278Z,3.95
2023-03-22T21:42:54.153Z,3.30
2023-03-22T21:45:27.537Z,2.63
2023-03-22T21:47:58.624Z,3.05
2023-03-22T21:50:29.414Z,3.17
2023-03-22T21:52:59.843Z,3.00
2023-03-22T21:55:32.809Z,2.90
2023-03-22T21:58:03.736Z,2.80
2023-03-22T22:00:37.563Z,3.40
2023-03-22T22:03:08.296Z,3.03
2023-03-22T22:05:39.464Z,2.58
2023-03-22T22:08:10.559Z,2.00
2023-03-22T22:10:40.955Z,2.55
2023-03-22T22:13:11.704Z,2.03
2023-03-22T22:15:45.088Z,2.38
2023-03-22T22:18:16.695Z,3.00
2023-03-22T22:20:47.223Z,2.53
2023-03-22T22:23:17.700Z,2.00
2023-03-22T22:25:54.006Z,2.50
2023-03-22T22:28:24.655Z,1.85
2023-03-22T22:30:57.832Z,2.47
2023-03-22T22:33:28.218Z,2.30
2023-03-22T22:35:58.704Z,1.70
2023-03-22T22:38:29.442Z,1.95
2023-03-22T22:40:59.942Z,2.00
2023-03-22T22:43:30.379Z,2.55
2023-03-22T22:46:04.220Z,1.98
2023-03-22T22:48:34.981Z,2.15
2023-03-22T22:51:06.515Z,2.40
2023-03-22T22:53:37.600Z,2.38
2023-03-22T22:56:10.787Z,2.88
2023-03-22T22:58:42.129Z,2.10
2023-03-22T23:01:17.231Z,2.75
2023-03-22T23:03:47.830Z,3.85
2023-03-22T23:06:20.849Z,3.38
2023-03-22T23:08:55.508Z,2.83
2023-03-22T23:11:32.832Z,2.55
2023-03-22T23:14:06.184Z,3.10
2023-03-22T23:16:40.044Z,3.05
2023-03-22T23:19:10.487Z,3.03
2023-03-22T23:21:41.966Z,2.65
2023-03-22T23:24:14.727Z,2.97
2023-03-22T23:26:47.998Z,3.05
2023-03-22T23:29:18.917Z,2.90
2023-03-22T23:31:52.001Z,3.70
2023-03-22T23:34:23.453Z,3.20
2023-03-22T23:36:54.653Z,3.30
2023-03-22T23:39:26.461Z,3.50
2023-03-22T23:41:57.168Z,3.40
2023-03-22T23:44:27.757Z,2.80
2023-03-22T23:47:00.763Z,3.45
2023-03-22T23:49:32.704Z,3.65
2023-03-22T23:52:03.256Z,3.70
2023-03-22T23:54:33.677Z,4.15
2023-03-22T23:57:04.302Z,3.20
2023-03-22T23:59:34.929Z,4.40
